Time;durP1;ratioP1;P1;durP2;ratioP2;P2;SDS_P1;SDS_P2;PMS_P1;PMS_P2;Temp;Humidity;BMP_temperature;BMP_pressure;BME280_temperature;BME280_humidity;BME280_pressure;Samples;Min_cycle;Max_cycle;Signal;HPM_P1;HPM_P2
2020/12/15 00:00:45;;;;;;;15.73;6.70;;;9.90;99.90;;;;;;5062906;28;20652;-77
2020/12/15 00:03:11;;;;;;;14.07;7.37;;;9.80;99.90;;;;;;5052962;28;20263;-77
2020/12/15 00:05:39;;;;;;;19.17;7.30;;;9.90;99.90;;;;;;5053192;28;20245;-77
2020/12/15 00:08:05;;;;;;;16.93;7.93;;;9.90;99.90;;;;;;5052923;28;20272;-77
2020/12/15 00:10:32;;;;;;;17.87;7.40;;;9.90;99.90;;;;;;5052879;28;20247;-77
2020/12/15 00:12:58;;;;;;;20.03;8.83;;;9.90;99.90;;;;;;5052646;28;20236;-77
2020/12/15 00:15:24;;;;;;;14.23;8.10;;;9.90;99.90;;;;;;5052821;28;20246;-77
2020/12/15 00:17:51;;;;;;;20.70;7.77;;;9.90;99.90;;;;;;5072090;28;20244;-77
2020/12/15 00:20:17;;;;;;;19.60;8.10;;;9.90;99.90;;;;;;5071833;28;20293;-77
2020/12/15 00:22:44;;;;;;;14.07;7.53;;;9.90;99.90;;;;;;5073145;28;20264;-77
2020/12/15 00:25:11;;;;;;;17.30;7.83;;;10.00;99.90;;;;;;5062446;28;20236;-77
2020/12/15 00:27:38;;;;;;;18.07;7.73;;;10.00;99.90;;;;;;5071982;28;20254;-77
2020/12/15 00:30:05;;;;;;;17.27;7.47;;;10.00;99.90;;;;;;5068630;28;20617;-77
2020/12/15 00:32:31;;;;;;;14.83;6.73;;;10.00;99.90;;;;;;5072463;28;20229;-77
2020/12/15 00:34:58;;;;;;;17.67;7.03;;;10.00;99.90;;;;;;5064449;28;20289;-77
2020/12/15 00:37:24;;;;;;;15.13;6.80;;;10.00;99.90;;;;;;5059464;28;20234;-77
2020/12/15 00:39:51;;;;;;;14.37;6.53;;;10.00;99.90;;;;;;5058696;28;20235;-77
2020/12/15 00:42:18;;;;;;;14.77;6.77;;;10.00;99.90;;;;;;5052109;28;20306;-77
2020/12/15 00:44:44;;;;;;;15.77;6.23;;;10.00;99.90;;;;;;5052475;28;20230;-77
2020/12/15 00:47:11;;;;;;;17.03;6.33;;;9.90;99.90;;;;;;5052513;28;20235;-77
2020/12/15 00:49:37;;;;;;;14.27;6.23;;;9.90;99.90;;;;;;5051752;28;20235;-77
2020/12/15 00:52:03;;;;;;;14.93;5.93;;;9.90;99.90;;;;;;5057948;28;20336;-77
2020/12/15 00:54:30;;;;;;;13.13;6.50;;;9.90;99.90;;;;;;5062736;28;20238;-77
2020/12/15 00:56:57;;;;;;;14.50;6.40;;;9.90;99.90;;;;;;5059332;28;20203;-77
2020/12/15 00:59:23;;;;;;;13.07;6.40;;;9.80;99.90;;;;;;5055962;28;20230;-77
2020/12/15 01:01:50;;;;;;;14.70;6.27;;;9.80;99.90;;;;;;5071661;28;20919;-76
2020/12/15 01:04:16;;;;;;;17.07;6.17;;;9.80;99.90;;;;;;5070745;28;20633;-77
2020/12/15 01:06:43;;;;;;;19.27;6.70;;;9.80;99.90;;;;;;5053410;28;20235;-77
2020/12/15 01:09:10;;;;;;;19.27;6.63;;;9.70;99.90;;;;;;5065745;28;20300;-76
2020/12/15 01:11:36;;;;;;;17.10;6.60;;;9.70;99.90;;;;;;5071387;28;20238;-77
2020/12/15 01:14:03;;;;;;;14.43;6.63;;;9.70;99.90;;;;;;5071940;28;20234;-77
2020/12/15 01:16:30;;;;;;;14.30;6.40;;;9.70;99.90;;;;;;5071459;28;20288;-77
2020/12/15 01:18:56;;;;;;;14.23;6.50;;;9.70;99.90;;;;;;5072178;28;20571;-77
2020/12/15 01:21:26;;;;;;;15.13;6.70;;;9.70;99.90;;;;;;5071003;28;20238;-77
2020/12/15 01:23:53;;;;;;;21.43;6.77;;;9.80;99.90;;;;;;5058299;28;20238;-77
2020/12/15 01:26:20;;;;;;;12.77;6.57;;;9.70;99.90;;;;;;5064561;28;20254;-77
2020/12/15 01:28:46;;;;;;;14.73;7.13;;;9.80;99.90;;;;;;5061372;28;20647;-77
2020/12/15 01:31:14;;;;;;;17.80;7.20;;;9.80;99.90;;;;;;5051575;28;20235;-77
2020/12/15 01:33:40;;;;;;;13.30;7.33;;;9.80;99.90;;;;;;5051576;28;20615;-76
2020/12/15 01:36:06;;;;;;;14.97;7.03;;;9.80;99.90;;;;;;5051743;28;20737;-77
2020/12/15 01:38:33;;;;;;;15.63;7.27;;;9.80;99.90;;;;;;5058130;28;20876;-77
2020/12/15 01:40:59;;;;;;;22.30;7.13;;;9.80;99.90;;;;;;5071711;28;20230;-77
2020/12/15 01:43:26;;;;;;;18.73;7.00;;;9.80;99.90;;;;;;5056532;28;20303;-76
2020/12/15 01:45:52;;;;;;;16.43;7.43;;;9.80;99.90;;;;;;5051347;28;20338;-76
2020/12/15 01:48:20;;;;;;;13.43;7.47;;;9.70;99.90;;;;;;5057031;28;20233;-77
2020/12/15 01:50:46;;;;;;;20.37;7.73;;;9.90;99.90;;;;;;5056262;28;20272;-77
2020/12/15 01:53:14;;;;;;;18.47;7.97;;;9.80;99.90;;;;;;5050962;28;20681;-76
2020/12/15 01:55:41;;;;;;;18.70;7.87;;;9.90;99.90;;;;;;5051496;28;20237;-76
2020/12/15 01:58:09;;;;;;;19.40;8.07;;;9.80;99.90;;;;;;5063964;28;20244;-77
2020/12/15 02:00:35;;;;;;;18.40;7.13;;;9.80;99.90;;;;;;5071551;28;20192;-77
2020/12/15 02:03:02;;;;;;;21.13;8.80;;;9.90;99.90;;;;;;5074713;28;20265;-77
2020/12/15 02:05:30;;;;;;;19.80;8.37;;;9.80;99.90;;;;;;5074788;28;20284;-76
2020/12/15 02:07:56;;;;;;;19.17;8.63;;;9.90;99.90;;;;;;5074429;28;20208;-76
2020/12/15 02:10:23;;;;;;;20.37;8.07;;;9.90;99.90;;;;;;5075322;28;20253;-77
2020/12/15 02:12:50;;;;;;;16.07;8.67;;;9.80;99.90;;;;;;5075227;28;20215;-77
2020/12/15 02:15:17;;;;;;;20.40;9.70;;;9.80;99.90;;;;;;5074753;28;20260;-76
2020/12/15 02:17:43;;;;;;;21.67;9.10;;;9.90;99.90;;;;;;5074481;28;20199;-77
2020/12/15 02:20:10;;;;;;;22.30;9.17;;;9.90;99.90;;;;;;5073840;28;20205;-77
2020/12/15 02:22:38;;;;;;;17.73;8.60;;;9.90;99.90;;;;;;5071460;28;20296;-77
2020/12/15 02:25:06;;;;;;;19.73;8.83;;;9.90;99.90;;;;;;5071557;28;20674;-77
2020/12/15 02:27:33;;;;;;;20.70;9.10;;;9.90;99.90;;;;;;5067113;28;20309;-77
2020/12/15 02:29:59;;;;;;;22.67;9.27;;;9.90;99.90;;;;;;5074999;28;20578;-77
2020/12/15 02:32:26;;;;;;;14.13;8.80;;;9.90;99.90;;;;;;5074030;28;20292;-76
2020/12/15 02:34:56;;;;;;;17.03;9.57;;;9.90;99.90;;;;;;5074508;28;20242;-77
2020/12/15 02:37:22;;;;;;;23.63;9.27;;;9.90;99.90;;;;;;5056477;28;20206;-77
2020/12/15 02:39:50;;;;;;;17.23;8.73;;;9.90;99.90;;;;;;5074790;28;20267;-77
2020/12/15 02:42:16;;;;;;;16.60;8.10;;;9.90;99.90;;;;;;5074443;28;20227;-76
2020/12/15 02:44:43;;;;;;;18.30;8.73;;;9.90;99.90;;;;;;5073643;28;20235;-76
2020/12/15 02:47:09;;;;;;;19.10;8.37;;;9.90;99.90;;;;;;5057955;28;20203;-77
2020/12/15 02:49:36;;;;;;;17.70;8.40;;;9.90;99.90;;;;;;5073358;28;20238;-77
2020/12/15 02:52:02;;;;;;;21.73;8.73;;;10.00;99.90;;;;;;5074739;28;20229;-77
2020/12/15 02:54:29;;;;;;;20.80;8.30;;;9.90;99.90;;;;;;5073623;28;20234;-77
2020/12/15 02:56:56;;;;;;;19.27;7.90;;;9.90;99.90;;;;;;5066747;28;20226;-76
2020/12/15 02:59:22;;;;;;;19.43;7.83;;;9.80;99.90;;;;;;5057830;28;20231;-77
2020/12/15 03:01:51;;;;;;;20.73;7.80;;;9.80;99.90;;;;;;5053571;28;20239;-77
2020/12/15 03:04:18;;;;;;;28.77;8.77;;;9.90;99.90;;;;;;5060720;28;20199;-77
2020/12/15 03:06:45;;;;;;;21.40;8.27;;;9.90;99.90;;;;;;5074164;28;20195;-76
2020/12/15 03:09:12;;;;;;;13.83;7.27;;;9.90;99.90;;;;;;5073793;28;20209;-77
2020/12/15 03:11:38;;;;;;;24.07;7.77;;;9.90;99.90;;;;;;5072558;28;20671;-77
2020/12/15 03:14:06;;;;;;;16.87;7.60;;;9.80;99.90;;;;;;5073950;28;20239;-76
2020/12/15 03:16:33;;;;;;;19.77;7.67;;;9.90;99.90;;;;;;5065601;28;20626;-77
2020/12/15 03:18:59;;;;;;;21.80;7.97;;;9.80;99.90;;;;;;5073688;28;20209;-76
2020/12/15 03:21:27;;;;;;;19.07;8.10;;;9.80;99.90;;;;;;5074183;28;20210;-76
2020/12/15 03:23:54;;;;;;;16.93;8.30;;;9.80;99.90;;;;;;5087725;28;20229;-77
2020/12/15 03:26:20;;;;;;;17.07;7.83;;;9.80;99.90;;;;;;5079844;28;20659;-77
2020/12/15 03:28:47;;;;;;;19.53;8.37;;;9.80;99.90;;;;;;5073581;28;20238;-77
2020/12/15 03:31:14;;;;;;;21.07;8.23;;;9.80;99.90;;;;;;5073834;28;20233;-77
2020/12/15 03:33:41;;;;;;;21.57;7.80;;;9.70;99.90;;;;;;5061196;28;20235;-77
2020/12/15 03:36:08;;;;;;;16.87;8.33;;;9.70;99.90;;;;;;5071896;28;20568;-77
2020/12/15 03:38:35;;;;;;;19.43;8.27;;;9.80;99.90;;;;;;5063533;28;20265;-77
2020/12/15 03:41:01;;;;;;;18.53;8.30;;;9.70;99.90;;;;;;5073407;28;20235;-77
2020/12/15 03:43:28;;;;;;;18.93;7.70;;;9.70;99.90;;;;;;5073929;28;20262;-77
2020/12/15 03:45:54;;;;;;;17.53;8.00;;;9.60;99.90;;;;;;5073338;28;20278;-77
2020/12/15 03:48:21;;;;;;;17.60;7.67;;;9.60;99.90;;;;;;5060269;28;20231;-77
2020/12/15 03:50:48;;;;;;;17.73;7.40;;;9.60;99.90;;;;;;5066244;28;20241;-77
2020/12/15 03:53:14;;;;;;;15.80;7.73;;;9.50;99.90;;;;;;5073423;28;20694;-76
2020/12/15 03:55:40;;;;;;;18.63;7.43;;;9.50;99.90;;;;;;5072329;28;20719;-77
2020/12/15 03:58:07;;;;;;;18.13;7.43;;;9.50;99.90;;;;;;5056527;28;20228;-77
2020/12/15 04:00:33;;;;;;;16.90;7.30;;;9.50;99.90;;;;;;5072939;28;20239;-77
2020/12/15 04:03:00;;;;;;;19.37;7.27;;;9.50;99.90;;;;;;5072996;28;20254;-77
2020/12/15 04:05:27;;;;;;;18.67;7.20;;;9.50;99.90;;;;;;5071337;28;20206;-76
2020/12/15 04:07:53;;;;;;;17.70;6.83;;;9.40;99.90;;;;;;5065661;28;20250;-77
2020/12/15 04:10:20;;;;;;;21.53;7.30;;;9.40;99.90;;;;;;5054546;28;20575;-77
2020/12/15 04:12:46;;;;;;;19.70;6.50;;;9.50;99.90;;;;;;5072669;28;20226;-76
2020/12/15 04:15:13;;;;;;;16.10;6.60;;;9.50;99.90;;;;;;5066900;28;20235;-77
2020/12/15 04:17:39;;;;;;;15.73;6.80;;;9.40;99.90;;;;;;5072399;28;20242;-77
2020/12/15 04:20:07;;;;;;;17.40;7.10;;;9.40;99.90;;;;;;5072713;28;20235;-77
2020/12/15 04:22:34;;;;;;;15.90;6.03;;;9.40;99.90;;;;;;5072215;28;20647;-77
2020/12/15 04:25:01;;;;;;;11.07;6.17;;;9.40;99.90;;;;;;5071906;28;20235;-77
2020/12/15 04:27:28;;;;;;;14.30;6.57;;;9.40;99.90;;;;;;5070772;28;20251;-77
2020/12/15 04:29:55;;;;;;;20.63;7.13;;;9.40;99.90;;;;;;5062935;28;20234;-77
2020/12/15 04:32:21;;;;;;;17.33;6.47;;;9.40;99.90;;;;;;5052703;28;20209;-77
2020/12/15 04:34:48;;;;;;;16.10;7.30;;;9.30;99.90;;;;;;5054986;28;20223;-77
2020/12/15 04:37:15;;;;;;;18.67;6.43;;;9.30;99.90;;;;;;5072163;28;20284;-77
2020/12/15 04:39:42;;;;;;;14.63;6.60;;;9.30;99.90;;;;;;5072414;28;20246;-77
2020/12/15 04:42:08;;;;;;;14.77;6.47;;;9.30;99.90;;;;;;5072184;28;20230;-76
2020/12/15 04:44:35;;;;;;;12.00;5.67;;;9.30;99.90;;;;;;5072203;28;20225;-77
2020/12/15 04:47:15;;;;;;;18.60;6.20;;;9.20;99.90;;;;;;5067879;28;20210;-77
2020/12/15 04:49:58;;;;;;;13.97;6.53;;;9.30;99.90;;;;;;5064615;28;20247;-76
2020/12/15 04:52:43;;;;;;;14.77;6.20;;;9.20;99.90;;;;;;5071061;28;20240;-77
2020/12/15 04:55:12;;;;;;;15.97;5.83;;;9.10;99.90;;;;;;5065687;28;20333;-77
2020/12/15 04:57:39;;;;;;;18.83;6.57;;;9.20;99.90;;;;;;5071987;28;20252;-76
2020/12/15 05:00:07;;;;;;;13.77;6.20;;;9.10;99.90;;;;;;5069194;28;20654;-77
2020/12/15 05:02:39;;;;;;;16.23;6.63;;;9.20;99.90;;;;;;5071987;28;20314;-76
2020/12/15 05:05:06;;;;;;;17.13;6.43;;;9.10;99.90;;;;;;5071790;28;20205;-77
2020/12/15 05:07:39;;;;;;;14.27;6.37;;;9.20;99.90;;;;;;5071594;28;20205;-76
2020/12/15 05:10:05;;;;;;;15.70;6.60;;;9.10;99.90;;;;;;5052132;28;20253;-77
2020/12/15 05:12:33;;;;;;;13.73;6.43;;;9.10;99.90;;;;;;5051803;28;20236;-77
2020/12/15 05:15:00;;;;;;;15.83;6.20;;;9.00;99.90;;;;;;5051928;28;20235;-77
2020/12/15 05:17:28;;;;;;;18.13;7.20;;;9.00;99.90;;;;;;5051799;28;20201;-77
2020/12/15 05:19:55;;;;;;;14.27;6.67;;;9.10;99.90;;;;;;5052099;28;20669;-77
2020/12/15 05:22:21;;;;;;;17.43;7.50;;;9.10;99.90;;;;;;5069082;28;20271;-76
2020/12/15 05:24:49;;;;;;;20.00;7.33;;;9.10;99.90;;;;;;5070512;28;20200;-76
2020/12/15 05:27:16;;;;;;;17.90;7.97;;;9.00;99.90;;;;;;5051408;28;20223;-76
2020/12/15 05:29:43;;;;;;;20.40;7.40;;;9.00;99.90;;;;;;5051780;28;20264;-76
2020/12/15 05:32:10;;;;;;;16.70;7.37;;;9.00;99.90;;;;;;5052095;28;20275;-76
2020/12/15 05:34:37;;;;;;;21.07;7.90;;;9.00;99.90;;;;;;5051202;28;20654;-76
2020/12/15 05:37:03;;;;;;;22.10;8.00;;;9.00;99.90;;;;;;5067967;28;20783;-76
2020/12/15 05:39:30;;;;;;;18.40;7.60;;;9.00;99.90;;;;;;5075122;28;20680;-76
2020/12/15 05:42:01;;;;;;;21.60;8.87;;;9.00;99.90;;;;;;5074829;28;20230;-76
2020/12/15 05:44:28;;;;;;;22.87;8.57;;;9.00;99.90;;;;;;5074768;28;20558;-76
2020/12/15 05:47:01;;;;;;;18.13;7.80;;;8.90;99.90;;;;;;5075329;28;20214;-77
2020/12/15 05:49:29;;;;;;;22.80;8.47;;;9.00;99.90;;;;;;5072643;28;20227;-76
2020/12/15 05:51:56;;;;;;;17.37;8.33;;;9.00;99.90;;;;;;5075576;28;20201;-77
2020/12/15 05:54:23;;;;;;;24.33;8.17;;;8.90;99.90;;;;;;5062069;28;20284;-77
2020/12/15 05:57:01;;;;;;;24.90;9.20;;;9.00;99.90;;;;;;5055847;28;20233;-77
2020/12/15 05:59:27;;;;;;;18.40;7.77;;;9.00;99.90;;;;;;5063822;28;20199;-77
2020/12/15 06:02:02;;;;;;;27.47;8.97;;;9.00;99.90;;;;;;5074656;28;20227;-76
2020/12/15 06:04:29;;;;;;;19.43;8.90;;;9.00;99.90;;;;;;5065323;28;20287;-77
2020/12/15 06:06:57;;;;;;;21.90;9.53;;;9.00;99.90;;;;;;5072525;28;20238;-76
2020/12/15 06:09:25;;;;;;;23.97;9.83;;;9.00;99.90;;;;;;5068678;28;20283;-76
2020/12/15 06:11:51;;;;;;;25.27;9.67;;;9.00;99.90;;;;;;5071703;28;20285;-77
2020/12/15 06:14:18;;;;;;;21.33;9.17;;;9.00;99.90;;;;;;5074875;28;20279;-76
2020/12/15 06:16:44;;;;;;;23.07;9.87;;;9.00;99.90;;;;;;5075405;28;20233;-76
2020/12/15 06:19:12;;;;;;;24.77;10.47;;;9.00;99.90;;;;;;5074789;28;20235;-76
2020/12/15 06:21:47;;;;;;;25.90;9.87;;;9.00;99.90;;;;;;5074423;28;20282;-76
2020/12/15 06:24:23;;;;;;;20.80;9.20;;;9.00;99.90;;;;;;5070170;28;20303;-77
2020/12/15 06:26:54;;;;;;;27.27;9.90;;;8.90;99.90;;;;;;5065111;28;20299;-77
2020/12/15 06:29:28;;;;;;;21.33;10.13;;;8.90;99.90;;;;;;5054883;28;20320;-77
2020/12/15 06:31:56;;;;;;;26.13;10.60;;;8.90;99.90;;;;;;5066296;28;20232;-77
2020/12/15 06:34:27;;;;;;;22.50;9.97;;;8.80;99.90;;;;;;5072756;28;20249;-77
2020/12/15 06:36:55;;;;;;;22.43;9.57;;;8.80;99.90;;;;;;5065807;28;20219;-77
2020/12/15 06:39:23;;;;;;;21.53;9.17;;;8.70;99.90;;;;;;5058156;28;20580;-76
2020/12/15 06:42:01;;;;;;;25.03;10.47;;;8.70;99.90;;;;;;5069799;28;20203;-76
2020/12/15 06:44:32;;;;;;;25.13;9.50;;;8.70;99.90;;;;;;5065423;28;20317;-77
2020/12/15 06:47:00;;;;;;;28.23;9.60;;;8.60;99.90;;;;;;5073827;28;20234;-76
2020/12/15 06:49:28;;;;;;;22.57;9.30;;;8.60;99.90;;;;;;5061337;28;20224;-76
2020/12/15 06:51:57;;;;;;;25.47;9.50;;;8.50;99.90;;;;;;5071136;28;20196;-76
2020/12/15 06:54:29;;;;;;;22.37;8.67;;;8.50;99.90;;;;;;5071265;28;20231;-76
2020/12/15 06:57:05;;;;;;;26.47;9.77;;;8.50;99.90;;;;;;5071786;28;20287;-76
2020/12/15 06:59:35;;;;;;;29.47;10.47;;;8.40;99.90;;;;;;5071778;28;20299;-75
2020/12/15 07:02:13;;;;;;;31.00;10.47;;;8.40;99.90;;;;;;5064280;28;20625;-76
2020/12/15 07:04:42;;;;;;;28.83;10.00;;;8.50;99.90;;;;;;5067488;28;20238;-76
2020/12/15 07:07:10;;;;;;;26.77;9.60;;;8.50;99.90;;;;;;5060751;28;20208;-76
2020/12/15 07:09:38;;;;;;;43.63;10.17;;;8.50;99.90;;;;;;5068768;28;20238;-76
2020/12/15 07:12:10;;;;;;;47.97;14.43;;;8.50;99.90;;;;;;5066922;28;20243;-76
2020/12/15 07:14:36;;;;;;;32.50;11.00;;;8.40;99.90;;;;;;5068245;28;20257;-76
2020/12/15 07:17:03;;;;;;;42.97;11.67;;;8.40;99.90;;;;;;5072483;28;20283;-76
2020/12/15 07:19:30;;;;;;;32.53;10.30;;;8.40;99.90;;;;;;5070458;28;21070;-76
2020/12/15 07:21:56;;;;;;;31.00;11.30;;;8.30;99.90;;;;;;5063227;28;20238;-76
2020/12/15 07:24:23;;;;;;;40.00;10.63;;;8.20;99.90;;;;;;5070381;28;20673;-76
2020/12/15 07:26:51;;;;;;;34.67;10.77;;;8.20;99.90;;;;;;5068880;28;20223;-75
2020/12/15 07:29:18;;;;;;;28.90;10.37;;;8.20;99.90;;;;;;5068881;28;20640;-76
2020/12/15 07:31:45;;;;;;;34.63;10.03;;;8.10;99.90;;;;;;5072663;28;20227;-76
2020/12/15 07:34:13;;;;;;;28.80;9.67;;;8.10;99.90;;;;;;5072938;28;20281;-76
2020/12/15 07:36:42;;;;;;;32.43;9.87;;;8.00;99.90;;;;;;5070547;28;20325;-75
2020/12/15 07:39:10;;;;;;;105.93;10.83;;;8.10;99.90;;;;;;5066737;28;20227;-76
2020/12/15 07:41:38;;;;;;;226.13;12.43;;;8.00;99.90;;;;;;5066115;28;20597;-76
2020/12/15 07:44:08;;;;;;;241.37;13.67;;;7.90;99.90;;;;;;5071452;28;20774;-76
2020/12/15 07:46:35;;;;;;;66.33;9.90;;;7.90;99.90;;;;;;5063762;28;20299;-75
2020/12/15 07:49:04;;;;;;;168.93;12.80;;;7.80;99.90;;;;;;5069865;28;20228;-77
2020/12/15 07:51:31;;;;;;;111.37;11.97;;;7.80;99.90;;;;;;5062663;28;20203;-75
2020/12/15 07:53:59;;;;;;;78.97;11.87;;;7.70;99.90;;;;;;5071471;28;20252;-75
2020/12/15 07:56:25;;;;;;;65.47;10.97;;;7.70;99.90;;;;;;5072283;28;20206;-75
2020/12/15 07:58:54;;;;;;;78.77;11.13;;;7.60;99.90;;;;;;5070273;28;20295;-76
2020/12/15 08:01:21;;;;;;;51.00;10.13;;;7.50;99.90;;;;;;5067829;28;20723;-75
2020/12/15 08:03:48;;;;;;;138.83;12.20;;;7.40;99.90;;;;;;5062810;28;20318;-75
2020/12/15 08:06:15;;;;;;;54.77;10.50;;;7.40;99.90;;;;;;5066735;28;20203;-75
2020/12/15 08:08:46;;;;;;;26.47;9.00;;;7.30;99.90;;;;;;5067865;28;21005;-75
2020/12/15 08:11:18;;;;;;;36.10;9.23;;;7.50;99.90;;;;;;5068711;28;20211;-76
2020/12/15 08:13:46;;;;;;;124.47;11.67;;;7.50;99.90;;;;;;5059062;28;20855;-76
2020/12/15 08:16:14;;;;;;;29.20;9.67;;;7.50;99.90;;;;;;5068289;28;20298;-75
2020/12/15 08:18:41;;;;;;;20.97;9.70;;;7.40;99.90;;;;;;5067725;28;20290;-75
2020/12/15 08:21:11;;;;;;;17.13;9.23;;;7.60;99.90;;;;;;5068512;28;20250;-75
2020/12/15 08:23:40;;;;;;;21.97;9.27;;;7.90;99.90;;;;;;5063928;28;20227;-75
2020/12/15 08:26:08;;;;;;;19.97;9.20;;;8.20;99.90;;;;;;5064002;28;20211;-75
2020/12/15 08:28:34;;;;;;;16.67;8.33;;;8.60;99.90;;;;;;5066844;28;20238;-76
2020/12/15 08:31:10;;;;;;;16.37;8.07;;;9.20;99.90;;;;;;5063702;28;20713;-75
2020/12/15 08:33:38;;;;;;;14.10;7.53;;;9.60;99.90;;;;;;5061286;28;21041;-76
2020/12/15 08:36:05;;;;;;;15.53;7.83;;;10.00;99.90;;;;;;5065808;28;20299;-75
2020/12/15 08:38:34;;;;;;;75.50;9.90;;;10.30;99.90;;;;;;5068172;28;20382;-76
2020/12/15 08:41:03;;;;;;;16.30;7.57;;;10.60;99.90;;;;;;5070822;28;20713;-76
2020/12/15 08:43:30;;;;;;;11.70;6.70;;;10.60;99.90;;;;;;5067344;28;20219;-76
2020/12/15 08:45:57;;;;;;;15.97;5.57;;;10.80;99.90;;;;;;5066557;28;20305;-76
2020/12/15 08:48:25;;;;;;;10.93;5.30;;;11.10;99.90;;;;;;5065438;28;20278;-76
2020/12/15 08:50:53;;;;;;;9.83;4.73;;;11.20;99.90;;;;;;5066133;28;20195;-76
2020/12/15 08:53:20;;;;;;;10.70;4.40;;;11.60;99.90;;;;;;5055685;28;20357;-76
2020/12/15 08:55:48;;;;;;;7.60;3.53;;;11.90;99.90;;;;;;5070697;28;20662;-76
2020/12/15 08:58:15;;;;;;;7.07;3.47;;;11.40;99.90;;;;;;5065240;28;20648;-76
2020/12/15 09:00:43;;;;;;;6.07;3.93;;;11.70;99.90;;;;;;5067814;28;20234;-76
2020/12/15 09:03:11;;;;;;;6.47;3.47;;;12.60;99.90;;;;;;5068216;28;20303;-76
2020/12/15 09:05:48;;;;;;;8.23;3.73;;;13.00;99.90;;;;;;5070498;28;20576;-76
2020/12/15 09:08:16;;;;;;;8.90;4.03;;;12.90;99.90;;;;;;5068037;28;20324;-77
2020/12/15 09:10:43;;;;;;;7.93;3.63;;;13.60;99.90;;;;;;5068862;28;20274;-76
2020/12/15 09:13:10;;;;;;;7.17;3.20;;;13.80;99.90;;;;;;5065820;28;20235;-77
2020/12/15 09:15:46;;;;;;;8.47;3.53;;;13.60;99.90;;;;;;5064415;28;20310;-77
2020/12/15 09:18:14;;;;;;;5.60;3.20;;;14.00;99.90;;;;;;5067491;28;20207;-77
2020/12/15 09:20:42;;;;;;;5.70;3.33;;;14.00;99.90;;;;;;5063307;28;20274;-76
2020/12/15 09:23:08;;;;;;;7.30;3.40;;;13.90;99.90;;;;;;5062991;28;20670;-77
2020/12/15 09:25:36;;;;;;;6.25;3.30;;;13.30;99.90;;;;;;5069835;28;20238;-77
2020/12/15 09:28:02;;;;;;;9.07;3.78;;;12.90;99.90;;;;;;5061093;28;20654;-76
2020/12/15 09:30:29;;;;;;;7.17;3.27;;;12.70;99.90;;;;;;5068750;28;20198;-76
2020/12/15 09:32:55;;;;;;;8.20;3.25;;;12.70;99.90;;;;;;5063360;28;20230;-77
2020/12/15 09:35:21;;;;;;;8.60;3.23;;;12.50;99.90;;;;;;5065558;28;20617;-77
2020/12/15 09:37:48;;;;;;;6.80;3.40;;;12.70;99.90;;;;;;5066795;28;20290;-76
2020/12/15 09:40:14;;;;;;;11.63;3.43;;;13.30;99.90;;;;;;5061125;28;20294;-77
2020/12/15 09:42:44;;;;;;;7.35;2.97;;;13.80;99.90;;;;;;5060737;28;20243;-77
2020/12/15 09:45:11;;;;;;;5.63;3.10;;;14.00;99.90;;;;;;5062840;28;20371;-77
2020/12/15 09:47:41;;;;;;;8.93;3.60;;;13.70;99.90;;;;;;5072760;28;20819;-77
2020/12/15 09:50:08;;;;;;;8.77;2.80;;;13.90;99.90;;;;;;5064606;28;20578;-77
2020/12/15 09:52:34;;;;;;;8.63;3.40;;;13.80;99.90;;;;;;5064390;28;20298;-77
2020/12/15 09:55:01;;;;;;;7.77;3.40;;;14.30;99.90;;;;;;5062824;28;20809;-77
2020/12/15 09:57:27;;;;;;;6.90;3.20;;;13.80;99.90;;;;;;5061639;28;20281;-77
2020/12/15 09:59:54;;;;;;;8.53;2.90;;;13.40;99.90;;;;;;5068333;28;20226;-76
2020/12/15 10:02:21;;;;;;;10.40;2.87;;;13.50;99.90;;;;;;5064520;28;20238;-77
2020/12/15 10:04:47;;;;;;;8.70;3.07;;;13.60;99.90;;;;;;5062803;28;20284;-77
2020/12/15 10:07:14;;;;;;;7.20;3.17;;;13.60;99.90;;;;;;5058099;28;20368;-77
2020/12/15 10:09:40;;;;;;;7.00;2.77;;;13.80;99.90;;;;;;5068191;28;20227;-77
2020/12/15 10:12:07;;;;;;;8.47;3.00;;;14.00;99.90;;;;;;5060876;28;20300;-77
2020/12/15 10:14:34;;;;;;;7.93;2.67;;;14.50;99.90;;;;;;5069914;28;20230;-77
2020/12/15 10:17:02;;;;;;;6.07;2.77;;;14.60;99.90;;;;;;5063638;28;20247;-77
2020/12/15 10:19:28;;;;;;;9.77;3.20;;;14.90;99.90;;;;;;5066904;28;20290;-77
2020/12/15 10:21:55;;;;;;;8.53;2.73;;;15.00;99.90;;;;;;5069120;28;20640;-76
2020/12/15 10:24:22;;;;;;;7.50;2.37;;;14.30;99.90;;;;;;5065744;28;20306;-76
2020/12/15 10:26:48;;;;;;;8.63;2.63;;;14.30;99.90;;;;;;5069669;28;20258;-76
2020/12/15 10:29:14;;;;;;;14.67;2.80;;;14.30;99.90;;;;;;5065467;28;20294;-76
2020/12/15 10:31:41;;;;;;;6.60;2.70;;;14.90;99.90;;;;;;5067912;28;20722;-77
2020/12/15 10:34:08;;;;;;;7.07;2.00;;;15.10;99.90;;;;;;5067883;28;20230;-77
2020/12/15 10:36:35;;;;;;;6.13;2.00;;;15.20;99.90;;;;;;5071303;28;20247;-77
2020/12/15 10:39:01;;;;;;;5.50;2.03;;;14.90;99.90;;;;;;5066090;28;20223;-77
2020/12/15 10:41:28;;;;;;;9.53;2.10;;;15.00;99.90;;;;;;5071260;28;20223;-77
2020/12/15 10:43:54;;;;;;;10.10;2.20;;;14.50;99.90;;;;;;5069656;28;20250;-77
2020/12/15 10:46:25;;;;;;;9.63;2.20;;;14.90;99.90;;;;;;5067323;28;20328;-77
2020/12/15 10:48:51;;;;;;;7.43;1.80;;;14.50;99.90;;;;;;5065868;28;20291;-77
2020/12/15 10:51:18;;;;;;;7.80;2.03;;;14.50;99.90;;;;;;5069976;28;20237;-77
2020/12/15 10:53:45;;;;;;;9.07;2.00;;;14.70;99.90;;;;;;5065560;28;20233;-76
2020/12/15 10:56:13;;;;;;;4.63;1.90;;;14.80;99.90;;;;;;5065083;28;20230;-77
2020/12/15 10:58:40;;;;;;;7.50;1.70;;;14.90;99.90;;;;;;5069339;28;20291;-77
2020/12/15 11:01:07;;;;;;;7.27;1.77;;;14.30;99.90;;;;;;5068893;28;20595;-77
2020/12/15 11:03:34;;;;;;;9.47;2.30;;;14.30;99.90;;;;;;5068669;28;20800;-77
2020/12/15 11:06:02;;;;;;;7.03;1.90;;;14.90;99.90;;;;;;5056585;28;20290;-77
2020/12/15 11:08:29;;;;;;;7.00;1.80;;;14.30;99.90;;;;;;5068671;28;20199;-77
2020/12/15 11:10:56;;;;;;;6.17;1.67;;;14.20;99.90;;;;;;5065236;28;20237;-77
2020/12/15 11:13:23;;;;;;;5.90;1.47;;;14.30;99.90;;;;;;5067502;28;20287;-78
2020/12/15 11:15:49;;;;;;;9.93;1.63;;;14.90;99.90;;;;;;5063505;28;20204;-78
2020/12/15 11:18:16;;;;;;;5.83;2.00;;;14.70;99.90;;;;;;5069299;28;20331;-77
2020/12/15 11:20:43;;;;;;;4.33;1.47;;;15.00;99.90;;;;;;5066811;28;20282;-78
2020/12/15 11:23:09;;;;;;;6.73;1.53;;;15.10;99.90;;;;;;5066596;28;20298;-78
2020/12/15 11:25:36;;;;;;;5.57;1.70;;;15.10;99.90;;;;;;5070621;28;20230;-78
2020/12/15 11:28:03;;;;;;;5.87;1.57;;;15.50;99.90;;;;;;5064328;28;20689;-78
2020/12/15 11:30:29;;;;;;;6.17;1.40;;;15.30;99.90;;;;;;5063032;28;20207;-78
2020/12/15 11:32:56;;;;;;;6.90;1.63;;;14.70;99.90;;;;;;5065166;28;20241;-78
2020/12/15 11:35:22;;;;;;;7.07;1.77;;;15.00;99.90;;;;;;5071583;28;20696;-78
2020/12/15 11:37:49;;;;;;;8.00;2.00;;;14.90;99.90;;;;;;5067881;28;20925;-77
2020/12/15 11:40:16;;;;;;;8.57;2.10;;;15.30;99.90;;;;;;5070310;28;20285;-77
2020/12/15 11:42:44;;;;;;;5.73;1.50;;;15.80;99.90;;;;;;5067700;28;20204;-77
2020/12/15 11:45:11;;;;;;;6.60;1.93;;;15.80;99.90;;;;;;5071011;28;20218;-77
2020/12/15 11:47:37;;;;;;;8.03;1.93;;;15.70;99.90;;;;;;5071349;28;20227;-77
2020/12/15 11:50:05;;;;;;;6.83;1.80;;;15.70;99.90;;;;;;5069341;28;20235;-77
2020/12/15 11:52:31;;;;;;;8.63;2.20;;;15.50;99.90;;;;;;5064132;28;20203;-77
2020/12/15 11:54:58;;;;;;;9.43;1.93;;;15.60;99.90;;;;;;5061524;28;20275;-77
2020/12/15 11:57:24;;;;;;;7.17;1.70;;;15.70;99.90;;;;;;5060337;28;20298;-77
2020/12/15 11:59:52;;;;;;;3.77;1.37;;;15.60;99.90;;;;;;5067133;28;20234;-77
2020/12/15 12:02:18;;;;;;;6.43;1.53;;;15.40;99.90;;;;;;5064117;28;20690;-77
2020/12/15 12:04:44;;;;;;;8.53;1.57;;;15.50;99.90;;;;;;5070504;28;20306;-77
2020/12/15 12:07:11;;;;;;;6.30;1.57;;;15.30;99.90;;;;;;5060672;28;20286;-76
2020/12/15 12:09:38;;;;;;;6.33;1.90;;;15.20;99.90;;;;;;5071934;28;20241;-77
2020/12/15 12:12:05;;;;;;;5.93;2.07;;;15.30;99.90;;;;;;5068381;28;20608;-76
2020/12/15 12:14:32;;;;;;;5.53;1.83;;;15.40;99.90;;;;;;5072287;28;20274;-77
2020/12/15 12:16:59;;;;;;;5.33;1.50;;;15.60;99.90;;;;;;5066288;28;20227;-77
2020/12/15 12:19:25;;;;;;;5.40;2.03;;;15.50;99.90;;;;;;5070579;28;20222;-77
2020/12/15 12:21:52;;;;;;;6.00;2.37;;;15.30;99.90;;;;;;5067419;28;20742;-77
2020/12/15 12:24:18;;;;;;;6.70;1.73;;;15.10;99.90;;;;;;5071762;28;20309;-77
2020/12/15 12:26:44;;;;;;;9.27;1.90;;;15.30;99.90;;;;;;5069451;28;20651;-77
2020/12/15 12:29:11;;;;;;;5.97;1.50;;;15.40;99.90;;;;;;5071537;28;20662;-77
2020/12/15 12:31:37;;;;;;;2.87;1.30;;;15.00;99.90;;;;;;5070158;28;20223;-77
2020/12/15 12:34:04;;;;;;;5.83;1.60;;;14.40;99.90;;;;;;5057324;28;20336;-77
2020/12/15 12:36:32;;;;;;;4.83;1.90;;;14.30;99.90;;;;;;5071797;28;20241;-76
2020/12/15 12:38:58;;;;;;;5.33;1.50;;;14.40;99.90;;;;;;5069257;28;20199;-77
2020/12/15 12:41:24;;;;;;;5.30;1.60;;;14.80;99.90;;;;;;5065409;28;20206;-77
2020/12/15 12:43:51;;;;;;;3.13;1.10;;;15.60;99.90;;;;;;5068433;28;20238;-76
2020/12/15 12:46:18;;;;;;;5.37;1.13;;;16.10;99.90;;;;;;5061463;28;20324;-77